NWWK

Details ICAO NWWK (KOC)
Name Koumac
Region New Caledonia
Timezone Pacific/Noumea (UTC+11.0)
Plans Departing 0
Arriving 1
Stats Elevation 41 ft / 12 m (AMSL)
Location -20.546368° 164.255628°
Runways 1
Magnetic Variation 11.611° E
Sunrise 2017-12-13 18:17:57 UTC / 2017-12-14 05:17:57 Local
Sunset 2017-12-14 07:39:44 UTC / 2017-12-14 18:39:44 Local
Advertisement - Login to hide

Runways

ID Width Length Bearing (true) Bearing (mag) Surface Threshold Offset Overrun Length
06 82 ft / 25 m 3,605 ft / 1,099 m 67.20° 55.59° Asphalt 0 ft / 0 m 0 ft / 0 m
24 82 ft / 25 m 3,605 ft / 1,099 m 247.20° 235.59° Asphalt 0 ft / 0 m 0 ft / 0 m

Map

Weather


0- 5 10 15 20 25 30 35+ Temperature / ° C

Clouds and Precipitation
Forecast for 2017-12-14 12:00 UTC. Updated 2 hours ago

Ground ~20,000 ft ~40,000 ft Winds

METAR

Not found

TAF

TAF NWWK 140500Z 1406/1506 15010KT 9999 BKN040 TEMPO 1406/1410 3000 SHRA SCT020CB BECMG 1408/1410 VRB02KT BECMG 1415/1417 17012KT

Frequencies

Recorded 122.40 MHz KOUMAC FSS
Warning: Do not use this data for real-world aviation or navigation. No guarantee of current accuracy is given.